sensor_id;sensor_type;location;lat;lon;timestamp;temperature;humidity
21419;DHT22;10870;51.384;10.316;2022-10-17T00:25:45;14.90;99.90
21419;DHT22;10870;51.384;10.316;2022-10-17T00:28:04;15.00;99.90
21419;DHT22;10870;51.384;10.316;2022-10-17T00:30:31;14.80;99.90
21419;DHT22;10870;51.384;10.316;2022-10-17T01:06:53;14.70;99.90
21419;DHT22;10870;51.384;10.316;2022-10-17T01:41:56;14.50;99.90
21419;DHT22;10870;51.384;10.316;2022-10-17T01:43:58;14.50;99.90
21419;DHT22;10870;51.384;10.316;2022-10-17T01:46:09;14.30;99.90
21419;DHT22;10870;51.384;10.316;2022-10-17T01:48:15;14.70;99.90
21419;DHT22;10870;51.384;10.316;2022-10-17T01:50:18;14.30;99.90
21419;DHT22;10870;51.384;10.316;2022-10-17T01:52:26;14.30;99.90
21419;DHT22;10870;51.384;10.316;2022-10-17T01:54:36;14.40;99.90
21419;DHT22;10870;51.384;10.316;2022-10-17T01:56:42;14.60;99.90
21419;DHT22;10870;51.384;10.316;2022-10-17T01:58:51;14.30;99.90
21419;DHT22;10870;51.384;10.316;2022-10-17T02:00:53;14.40;99.90
21419;DHT22;10870;51.384;10.316;2022-10-17T02:02:57;14.30;99.90
21419;DHT22;10870;51.384;10.316;2022-10-17T02:05:02;14.30;99.90
21419;DHT22;10870;51.384;10.316;2022-10-17T02:07:07;14.30;99.90
21419;DHT22;10870;51.384;10.316;2022-10-17T02:09:18;14.40;99.90
21419;DHT22;10870;51.384;10.316;2022-10-17T02:11:23;14.40;99.90
21419;DHT22;10870;51.384;10.316;2022-10-17T02:26:39;14.40;99.90
21419;DHT22;10870;51.384;10.316;2022-10-17T02:34:52;14.40;99.90
21419;DHT22;10870;51.384;10.316;2022-10-17T02:36:56;14.40;99.90
21419;DHT22;10870;51.384;10.316;2022-10-17T02:39:01;14.40;99.90
21419;DHT22;10870;51.384;10.316;2022-10-17T02:41:05;14.40;99.90
21419;DHT22;10870;51.384;10.316;2022-10-17T02:43:08;14.40;99.90
21419;DHT22;10870;51.384;10.316;2022-10-17T02:45:09;14.40;99.90
21419;DHT22;10870;51.384;10.316;2022-10-17T02:47:12;14.40;99.90
21419;DHT22;10870;51.384;10.316;2022-10-17T02:49:17;14.40;99.90
21419;DHT22;10870;51.384;10.316;2022-10-17T02:51:25;14.40;99.90
21419;DHT22;10870;51.384;10.316;2022-10-17T02:53:33;14.50;99.90
21419;DHT22;10870;51.384;10.316;2022-10-17T02:55:38;14.40;99.90
21419;DHT22;10870;51.384;10.316;2022-10-17T02:57:53;14.40;99.90
21419;DHT22;10870;51.384;10.316;2022-10-17T02:59:58;14.40;99.90
21419;DHT22;10870;51.384;10.316;2022-10-17T03:02:04;14.30;99.90
21419;DHT22;10870;51.384;10.316;2022-10-17T03:04:06;14.40;99.90
21419;DHT22;10870;51.384;10.316;2022-10-17T03:06:07;14.40;99.90
21419;DHT22;10870;51.384;10.316;2022-10-17T03:08:08;14.30;99.90
21419;DHT22;10870;51.384;10.316;2022-10-17T04:31:21;14.40;99.90
21419;DHT22;10870;51.384;10.316;2022-10-17T04:33:25;14.50;99.90
21419;DHT22;10870;51.384;10.316;2022-10-17T04:35:29;14.40;99.90
21419;DHT22;10870;51.384;10.316;2022-10-17T04:37:52;14.40;99.90
21419;DHT22;10870;51.384;10.316;2022-10-17T04:40:04;14.40;99.90
21419;DHT22;10870;51.384;10.316;2022-10-17T04:42:20;14.70;99.90
21419;DHT22;10870;51.384;10.316;2022-10-17T04:44:36;14.40;99.90
21419;DHT22;10870;51.384;10.316;2022-10-17T04:46:41;14.40;99.90
21419;DHT22;10870;51.384;10.316;2022-10-17T04:48:52;14.40;99.90
21419;DHT22;10870;51.384;10.316;2022-10-17T04:51:03;14.40;99.90
21419;DHT22;10870;51.384;10.316;2022-10-17T04:53:12;14.40;99.90
21419;DHT22;10870;51.384;10.316;2022-10-17T04:55:16;14.50;99.90
21419;DHT22;10870;51.384;10.316;2022-10-17T04:57:41;14.40;99.90
21419;DHT22;10870;51.384;10.316;2022-10-17T05:00:00;14.50;99.90
21419;DHT22;10870;51.384;10.316;2022-10-17T05:02:12;14.40;99.90
21419;DHT22;10870;51.384;10.316;2022-10-17T05:04:15;14.40;99.90
21419;DHT22;10870;51.384;10.316;2022-10-17T05:06:22;14.40;99.90
21419;DHT22;10870;51.384;10.316;2022-10-17T05:08:30;14.40;99.90
21419;DHT22;10870;51.384;10.316;2022-10-17T05:10:44;14.40;99.90
21419;DHT22;10870;51.384;10.316;2022-10-17T05:12:49;14.40;99.90
21419;DHT22;10870;51.384;10.316;2022-10-17T05:14:52;14.30;99.90
21419;DHT22;10870;51.384;10.316;2022-10-17T05:17:00;14.50;99.90
21419;DHT22;10870;51.384;10.316;2022-10-17T05:19:06;14.40;99.90
21419;DHT22;10870;51.384;10.316;2022-10-17T05:21:11;14.40;99.90
21419;DHT22;10870;51.384;10.316;2022-10-17T05:23:32;14.50;99.90
21419;DHT22;10870;51.384;10.316;2022-10-17T05:25:38;14.40;99.90
21419;DHT22;10870;51.384;10.316;2022-10-17T05:27:51;14.40;99.90
21419;DHT22;10870;51.384;10.316;2022-10-17T05:30:02;14.40;99.90
21419;DHT22;10870;51.384;10.316;2022-10-17T05:34:17;14.40;99.90
21419;DHT22;10870;51.384;10.316;2022-10-17T05:36:21;14.40;99.90
21419;DHT22;10870;51.384;10.316;2022-10-17T05:38:25;14.70;99.90
21419;DHT22;10870;51.384;10.316;2022-10-17T05:40:36;14.50;99.90
21419;DHT22;10870;51.384;10.316;2022-10-17T05:42:44;14.40;99.90
21419;DHT22;10870;51.384;10.316;2022-10-17T05:44:45;14.40;99.90
21419;DHT22;10870;51.384;10.316;2022-10-17T05:47:00;14.40;99.90
21419;DHT22;10870;51.384;10.316;2022-10-17T05:49:08;14.40;99.90
21419;DHT22;10870;51.384;10.316;2022-10-17T05:51:09;14.50;99.90
21419;DHT22;10870;51.384;10.316;2022-10-17T05:53:16;14.60;99.90
21419;DHT22;10870;51.384;10.316;2022-10-17T05:55:20;14.60;99.90
21419;DHT22;10870;51.384;10.316;2022-10-17T05:57:24;14.60;99.90
21419;DHT22;10870;51.384;10.316;2022-10-17T05:59:26;14.60;99.90
21419;DHT22;10870;51.384;10.316;2022-10-17T06:01:35;14.70;99.90
21419;DHT22;10870;51.384;10.316;2022-10-17T06:03:37;14.80;99.90
21419;DHT22;10870;51.384;10.316;2022-10-17T06:05:40;14.70;99.90
21419;DHT22;10870;51.384;10.316;2022-10-17T06:07:53;14.70;99.90
21419;DHT22;10870;51.384;10.316;2022-10-17T06:09:59;14.80;99.90
21419;DHT22;10870;51.384;10.316;2022-10-17T06:12:05;14.70;99.90
21419;DHT22;10870;51.384;10.316;2022-10-17T06:14:07;14.70;99.90
21419;DHT22;10870;51.384;10.316;2022-10-17T06:16:10;14.80;99.90
21419;DHT22;10870;51.384;10.316;2022-10-17T06:18:19;14.90;99.90
21419;DHT22;10870;51.384;10.316;2022-10-17T06:20:24;14.90;99.90
21419;DHT22;10870;51.384;10.316;2022-10-17T06:22:26;15.00;99.90
21419;DHT22;10870;51.384;10.316;2022-10-17T06:24:29;15.00;99.90
21419;DHT22;10870;51.384;10.316;2022-10-17T06:26:30;15.00;99.90
21419;DHT22;10870;51.384;10.316;2022-10-17T06:28:41;15.00;99.90
21419;DHT22;10870;51.384;10.316;2022-10-17T06:30:50;15.00;99.90
21419;DHT22;10870;51.384;10.316;2022-10-17T06:33:02;15.10;99.90
21419;DHT22;10870;51.384;10.316;2022-10-17T06:35:05;15.10;99.90
21419;DHT22;10870;51.384;10.316;2022-10-17T06:37:30;15.10;99.90
21419;DHT22;10870;51.384;10.316;2022-10-17T06:39:37;15.10;99.90
21419;DHT22;10870;51.384;10.316;2022-10-17T06:41:49;15.20;99.90
21419;DHT22;10870;51.384;10.316;2022-10-17T06:43:54;15.20;99.90
21419;DHT22;10870;51.384;10.316;2022-10-17T06:46:45;15.30;99.90
21419;DHT22;10870;51.384;10.316;2022-10-17T06:48:58;15.30;99.90
21419;DHT22;10870;51.384;10.316;2022-10-17T06:58:07;15.50;99.90
21419;DHT22;10870;51.384;10.316;2022-10-17T09:26:38;19.50;99.90
21419;DHT22;10870;51.384;10.316;2022-10-17T09:28:41;19.60;99.90
21419;DHT22;10870;51.384;10.316;2022-10-17T09:30:50;19.60;99.90
21419;DHT22;10870;51.384;10.316;2022-10-17T09:33:08;19.70;99.90
21419;DHT22;10870;51.384;10.316;2022-10-17T09:35:15;19.70;99.90
21419;DHT22;10870;51.384;10.316;2022-10-17T09:37:16;19.80;99.90
21419;DHT22;10870;51.384;10.316;2022-10-17T09:39:21;19.80;99.90
